createdAt,value
2023-04-07T00:00:30.835Z,9.24
2023-04-07T00:02:57.739Z,9.25
2023-04-07T00:05:24.293Z,9.22
2023-04-07T00:07:56.491Z,9.26
2023-04-07T00:10:25.351Z,9.16
2023-04-07T00:12:52.319Z,9.11
2023-04-07T00:15:18.916Z,9.01
2023-04-07T00:17:45.385Z,9.02
2023-04-07T00:20:15.068Z,8.96
2023-04-07T00:22:45.533Z,8.94
2023-04-07T00:25:13.068Z,9.08
2023-04-07T00:27:39.506Z,9.09
2023-04-07T00:30:08.132Z,9.06
2023-04-07T00:32:35.372Z,9.12
2023-04-07T00:35:02.970Z,9.18
2023-04-07T00:37:29.527Z,9.31
2023-04-07T00:39:57.860Z,9.39
2023-04-07T00:42:24.295Z,9.58
2023-04-07T00:44:51.069Z,9.52
2023-04-07T00:47:17.645Z,9.69
2023-04-07T00:49:44.468Z,9.72
2023-04-07T00:52:15.065Z,9.73
2023-04-07T00:54:47.123Z,9.64
2023-04-07T00:57:15.032Z,9.52
2023-04-07T00:59:41.597Z,9.40
2023-04-07T01:02:17.048Z,9.17
2023-04-07T01:05:09.472Z,9.21
2023-04-07T01:08:02.255Z,9.21
2023-04-07T01:10:37.419Z,9.15
2023-04-07T01:13:24.060Z,9.15
2023-04-07T01:15:57.027Z,9.19
2023-04-07T01:18:35.457Z,9.16
2023-04-07T01:21:11.239Z,9.25
2023-04-07T01:24:01.591Z,9.27
2023-04-07T01:26:30.237Z,9.38
2023-04-07T01:29:15.568Z,9.51
2023-04-07T01:31:42.410Z,9.48
2023-04-07T01:34:13.344Z,9.46
2023-04-07T01:36:40.462Z,9.38
2023-04-07T01:39:07.764Z,9.48
2023-04-07T01:41:34.949Z,9.56
2023-04-07T01:44:03.472Z,9.57
2023-04-07T01:46:30.186Z,9.56
2023-04-07T01:48:57.993Z,9.51
2023-04-07T01:51:27.415Z,9.49
2023-04-07T01:53:54.693Z,9.39
2023-04-07T01:56:21.327Z,9.53
2023-04-07T01:58:47.807Z,9.50
2023-04-07T02:01:14.999Z,9.44
2023-04-07T02:04:11.204Z,9.47
2023-04-07T02:06:52.646Z,9.56
2023-04-07T02:09:21.528Z,9.60
2023-04-07T02:11:56.115Z,9.58
2023-04-07T02:14:24.470Z,9.62
2023-04-07T02:16:52.869Z,9.70
2023-04-07T02:19:19.978Z,9.82
2023-04-07T02:21:48.895Z,9.86
2023-04-07T02:24:21.034Z,9.89
2023-04-07T02:26:48.133Z,9.88
2023-04-07T02:29:15.572Z,9.83
2023-04-07T02:31:42.145Z,9.87
2023-04-07T02:34:08.664Z,9.76
2023-04-07T02:36:35.503Z,9.83
2023-04-07T02:39:02.567Z,9.89
2023-04-07T02:41:29.075Z,9.78
2023-04-07T02:43:56.146Z,9.77
2023-04-07T02:46:22.969Z,9.77
2023-04-07T02:48:52.716Z,9.57
2023-04-07T02:51:20.241Z,9.41
2023-04-07T02:53:46.764Z,9.45
2023-04-07T02:56:13.299Z,9.47
2023-04-07T02:58:42.714Z,9.61
2023-04-07T03:01:09.255Z,9.52
2023-04-07T03:03:35.888Z,9.52
2023-04-07T03:06:02.384Z,9.52
2023-04-07T03:08:28.849Z,9.54
2023-04-07T03:10:55.400Z,9.44
2023-04-07T03:13:22.994Z,9.42
2023-04-07T03:15:50.816Z,9.34
2023-04-07T03:18:17.554Z,9.38
2023-04-07T03:20:44.626Z,9.45
2023-04-07T03:23:11.491Z,9.32
2023-04-07T03:25:38.004Z,9.46
2023-04-07T03:28:04.735Z,9.29
2023-04-07T03:30:31.355Z,9.09
2023-04-07T03:32:57.868Z,9.01
2023-04-07T03:35:24.484Z,9.08
2023-04-07T03:37:52.262Z,9.00
2023-04-07T03:40:18.962Z,8.99
2023-04-07T03:42:46.538Z,8.97
2023-04-07T03:45:13.142Z,9.02
2023-04-07T03:47:39.598Z,9.00
2023-04-07T03:50:06.828Z,8.98
2023-04-07T03:52:33.317Z,9.00
2023-04-07T03:54:59.810Z,8.95
2023-04-07T03:57:26.281Z,8.98
2023-04-07T03:59:54.733Z,9.02
2023-04-07T04:02:21.369Z,9.02
2023-04-07T04:04:47.931Z,9.04
2023-04-07T04:07:14.428Z,9.12
2023-04-07T04:09:41.305Z,9.11
2023-04-07T04:12:07.963Z,9.18
2023-04-07T04:14:34.410Z,9.26
2023-04-07T04:17:00.995Z,9.21
2023-04-07T04:19:32.004Z,9.37
2023-04-07T04:21:58.632Z,9.38
2023-04-07T04:24:25.693Z,9.32
2023-04-07T04:26:52.140Z,9.39
2023-04-07T04:29:18.593Z,9.18
2023-04-07T04:31:45.372Z,9.14
2023-04-07T04:34:11.987Z,8.92
2023-04-07T04:36:41.103Z,8.90
2023-04-07T04:39:07.636Z,8.90
2023-04-07T04:41:34.064Z,8.96
2023-04-07T04:44:00.802Z,9.02
2023-04-07T04:46:27.446Z,9.05
2023-04-07T04:48:54.215Z,9.10
2023-04-07T04:51:20.792Z,9.11
2023-04-07T04:53:47.748Z,9.03
2023-04-07T04:56:14.276Z,9.04
2023-04-07T04:58:42.189Z,9.06
2023-04-07T05:01:08.801Z,9.00
2023-04-07T05:03:35.427Z,9.03
2023-04-07T05:06:01.988Z,8.90
2023-04-07T05:08:28.632Z,8.91
2023-04-07T05:10:57.938Z,8.94
2023-04-07T05:13:25.821Z,8.89
2023-04-07T05:15:52.361Z,8.79
2023-04-07T05:18:18.884Z,8.60
2023-04-07T05:20:45.381Z,8.52
2023-04-07T05:23:11.832Z,8.56
2023-04-07T05:25:38.245Z,8.44
2023-04-07T05:28:04.817Z,8.45
2023-04-07T05:30:31.283Z,8.41
2023-04-07T05:33:01.109Z,8.37
2023-04-07T05:35:28.781Z,8.21
2023-04-07T05:37:55.443Z,8.24
2023-04-07T05:40:21.895Z,8.38
2023-04-07T05:42:48.425Z,8.38
2023-04-07T05:45:15.000Z,8.21
2023-04-07T05:47:41.818Z,8.41
2023-04-07T05:50:08.807Z,8.49
2023-04-07T05:52:35.242Z,8.57
2023-04-07T05:55:01.776Z,8.51
2023-04-07T05:57:29.709Z,8.70
2023-04-07T05:59:56.246Z,8.68
2023-04-07T06:02:22.847Z,8.70
2023-04-07T06:04:49.650Z,8.71
2023-04-07T06:07:16.181Z,8.95
2023-04-07T06:09:42.818Z,8.99
2023-04-07T06:12:10.744Z,9.03
2023-04-07T06:14:37.253Z,8.96
2023-04-07T06:17:06.982Z,9.12
2023-04-07T06:19:33.762Z,8.98
2023-04-07T06:22:00.590Z,9.03
2023-04-07T06:24:29.973Z,9.02
2023-04-07T06:26:59.363Z,9.11
2023-04-07T06:29:29.860Z,9.23
2023-04-07T06:32:00.497Z,9.31
2023-04-07T06:34:28.457Z,9.24
2023-04-07T06:36:56.406Z,9.15
2023-04-07T06:39:28.920Z,9.12
2023-04-07T06:41:58.120Z,9.10
2023-04-07T06:44:24.593Z,8.98
2023-04-07T06:46:55.507Z,8.87
2023-04-07T06:49:22.209Z,8.68
2023-04-07T06:51:50.266Z,8.58
2023-04-07T06:54:17.232Z,8.57
2023-04-07T06:56:44.678Z,8.66
2023-04-07T06:59:11.564Z,8.63
2023-04-07T07:01:38.621Z,8.61
2023-04-07T07:04:08.414Z,8.64
2023-04-07T07:06:35.561Z,8.49
2023-04-07T07:09:03.425Z,8.68
2023-04-07T07:11:32.815Z,8.75
2023-04-07T07:14:01.710Z,8.94
2023-04-07T07:16:29.897Z,9.41
2023-04-07T07:18:56.903Z,9.80
2023-04-07T07:21:23.405Z,10.02
2023-04-07T07:23:50.195Z,10.38
2023-04-07T07:26:16.888Z,10.89
2023-04-07T07:28:43.511Z,11.43
2023-04-07T07:31:14.907Z,11.87
2023-04-07T07:33:43.854Z,11.88
2023-04-07T07:36:10.782Z,11.76
2023-04-07T07:38:37.902Z,12.16
2023-04-07T07:41:04.597Z,12.29
2023-04-07T07:43:31.191Z,12.38
2023-04-07T07:46:01.267Z,12.57
2023-04-07T07:48:30.728Z,12.88
2023-04-07T07:50:57.198Z,12.89
2023-04-07T07:53:23.804Z,13.13
2023-04-07T07:55:50.482Z,13.32
2023-04-07T07:58:16.994Z,13.61
2023-04-07T08:00:43.606Z,13.75
2023-04-07T08:03:10.441Z,14.10
2023-04-07T08:05:36.913Z,14.66
2023-04-07T08:08:03.741Z,14.34
2023-04-07T08:10:33.226Z,14.02
2023-04-07T08:12:59.876Z,14.32
2023-04-07T08:15:26.618Z,13.86
2023-04-07T08:17:54.824Z,13.53
2023-04-07T08:20:23.188Z,12.86
2023-04-07T08:22:49.689Z,12.27
2023-04-07T08:25:16.447Z,12.05
2023-04-07T08:27:43.093Z,11.75
2023-04-07T08:30:09.967Z,11.69
2023-04-07T08:32:42.206Z,12.07
2023-04-07T08:35:09.126Z,13.10
2023-04-07T08:37:36.701Z,13.17
2023-04-07T08:40:04.106Z,12.71
2023-04-07T08:42:33.084Z,12.25
2023-04-07T08:45:05.821Z,12.25
2023-04-07T08:47:34.745Z,13.28
2023-04-07T08:50:06.825Z,14.47
2023-04-07T08:52:54.704Z,15.32
2023-04-07T08:55:21.421Z,15.92
2023-04-07T08:57:48.392Z,16.69
2023-04-07T09:00:15.550Z,17.71
2023-04-07T09:02:50.169Z,17.41
2023-04-07T09:05:16.869Z,16.55
2023-04-07T09:07:43.888Z,15.91
2023-04-07T09:10:10.736Z,16.53
2023-04-07T09:12:37.529Z,17.47
2023-04-07T09:15:06.393Z,18.50
2023-04-07T09:17:32.980Z,19.34
2023-04-07T09:20:04.954Z,19.73
2023-04-07T09:22:47.990Z,19.25
2023-04-07T09:25:24.030Z,17.85
2023-04-07T09:28:01.468Z,16.36
2023-04-07T09:30:32.579Z,15.06
2023-04-07T09:33:02.763Z,14.40
2023-04-07T09:35:32.319Z,15.31
2023-04-07T09:38:06.682Z,15.36
2023-04-07T09:40:33.745Z,16.61
2023-04-07T09:43:06.088Z,17.46
2023-04-07T09:45:36.142Z,16.71
2023-04-07T09:48:07.882Z,15.61
2023-04-07T09:50:37.069Z,14.73
2023-04-07T09:53:04.845Z,13.88
2023-04-07T09:55:31.667Z,14.34
2023-04-07T09:58:00.914Z,16.13
2023-04-07T10:00:27.395Z,17.89
2023-04-07T10:02:54.412Z,19.48
2023-04-07T10:05:22.103Z,20.38
2023-04-07T10:07:49.139Z,20.01
2023-04-07T10:10:15.954Z,19.02
2023-04-07T10:12:42.734Z,17.79
2023-04-07T10:15:13.825Z,18.09
2023-04-07T10:17:45.573Z,18.74
2023-04-07T10:20:13.809Z,18.65
2023-04-07T10:22:42.659Z,17.88
2023-04-07T10:25:11.708Z,16.66
2023-04-07T10:27:53.274Z,16.31
2023-04-07T10:30:36.331Z,15.82
2023-04-07T10:33:02.900Z,16.34
2023-04-07T10:36:07.336Z,17.13
2023-04-07T10:38:34.200Z,16.86
2023-04-07T10:41:00.828Z,16.38
2023-04-07T10:43:41.947Z,15.95
2023-04-07T10:46:08.738Z,15.97
2023-04-07T10:48:35.317Z,17.32
2023-04-07T10:51:04.864Z,19.34
2023-04-07T10:53:32.134Z,20.68
2023-04-07T10:56:05.794Z,22.08
2023-04-07T10:58:33.278Z,23.29
2023-04-07T11:01:09.371Z,23.40
2023-04-07T11:03:38.162Z,22.21
2023-04-07T11:06:14.739Z,20.85
2023-04-07T11:08:48.767Z,19.69
2023-04-07T11:11:36.428Z,18.57
2023-04-07T11:14:03.822Z,17.12
2023-04-07T11:16:43.846Z,16.21
2023-04-07T11:19:11.562Z,16.17
2023-04-07T11:21:38.513Z,17.39
2023-04-07T11:24:05.697Z,18.27
2023-04-07T11:26:39.072Z,19.30
2023-04-07T11:29:05.692Z,20.67
2023-04-07T11:31:32.612Z,21.53
2023-04-07T11:34:07.600Z,22.06
2023-04-07T11:36:41.860Z,21.23
2023-04-07T11:39:21.628Z,19.94
2023-04-07T11:41:50.188Z,18.99
2023-04-07T11:44:17.233Z,17.63
2023-04-07T11:46:56.734Z,16.82
2023-04-07T11:49:25.233Z,16.49
2023-04-07T11:52:02.123Z,17.75
2023-04-07T11:54:50.044Z,19.49
2023-04-07T11:57:26.144Z,19.50
2023-04-07T12:00:06.688Z,19.18
2023-04-07T12:02:34.684Z,18.65
2023-04-07T12:05:02.115Z,18.28
2023-04-07T12:07:29.980Z,18.63
2023-04-07T12:09:57.736Z,19.85
2023-04-07T12:12:35.171Z,21.08
2023-04-07T12:15:05.300Z,22.03
2023-04-07T12:17:32.163Z,22.57
2023-04-07T12:19:58.669Z,22.93
2023-04-07T12:22:26.991Z,23.73
2023-04-07T12:24:53.483Z,24.38
2023-04-07T12:27:22.821Z,23.46
2023-04-07T12:29:53.304Z,21.56
2023-04-07T12:32:19.841Z,20.25
2023-04-07T12:34:47.848Z,19.54
2023-04-07T12:37:14.472Z,19.42
2023-04-07T12:39:41.142Z,20.77
2023-04-07T12:42:11.691Z,22.01
2023-04-07T12:44:38.558Z,23.08
2023-04-07T12:47:04.986Z,23.79
2023-04-07T12:49:34.852Z,24.11
2023-04-07T12:52:04.686Z,23.35
2023-04-07T12:54:32.575Z,22.30
2023-04-07T12:56:59.793Z,21.54
2023-04-07T12:59:26.334Z,21.45
2023-04-07T13:01:53.553Z,21.83
2023-04-07T13:04:20.212Z,22.23
2023-04-07T13:06:46.811Z,22.44
2023-04-07T13:09:13.306Z,21.91
2023-04-07T13:11:40.115Z,20.86
2023-04-07T13:14:07.642Z,20.98
2023-04-07T13:16:34.242Z,21.82
2023-04-07T13:19:03.150Z,23.26
2023-04-07T13:21:45.627Z,24.30
2023-04-07T13:24:13.723Z,24.60
2023-04-07T13:26:40.286Z,24.61
2023-04-07T13:29:06.841Z,25.23
2023-04-07T13:31:36.266Z,25.61
2023-04-07T13:34:03.525Z,24.97
2023-04-07T13:36:30.180Z,24.70
2023-04-07T13:38:57.674Z,24.22
2023-04-07T13:41:24.243Z,24.04
2023-04-07T13:43:51.098Z,24.40
2023-04-07T13:46:28.045Z,24.22
2023-04-07T13:48:56.337Z,23.46
2023-04-07T13:51:22.936Z,23.74
2023-04-07T13:53:49.799Z,24.03
2023-04-07T13:56:16.596Z,24.57
2023-04-07T13:58:43.162Z,24.38
2023-04-07T14:01:09.670Z,22.43
2023-04-07T14:03:36.277Z,21.57
2023-04-07T14:06:03.449Z,20.64
2023-04-07T14:08:29.931Z,20.16
2023-04-07T14:10:56.500Z,20.03
2023-04-07T14:13:23.170Z,19.52
2023-04-07T14:15:50.386Z,18.84
2023-04-07T14:18:17.514Z,18.16
2023-04-07T14:20:44.216Z,17.42
2023-04-07T14:23:11.420Z,18.61
2023-04-07T14:25:37.898Z,19.73
2023-04-07T14:28:04.443Z,20.96
2023-04-07T14:30:34.614Z,21.27
2023-04-07T14:33:05.053Z,20.83
2023-04-07T14:35:35.983Z,19.92
2023-04-07T14:38:07.826Z,20.05
2023-04-07T14:40:34.391Z,20.88
2023-04-07T14:43:07.385Z,21.65
2023-04-07T14:45:35.714Z,21.29
2023-04-07T14:48:06.947Z,21.16
2023-04-07T14:50:34.171Z,21.46
2023-04-07T14:53:04.779Z,22.10
2023-04-07T14:55:32.863Z,22.60
2023-04-07T14:57:59.728Z,22.84
2023-04-07T15:00:27.272Z,22.38
2023-04-07T15:02:54.426Z,22.19
2023-04-07T15:05:23.010Z,21.68
2023-04-07T15:07:52.544Z,21.02
2023-04-07T15:10:19.171Z,20.63
2023-04-07T15:12:47.392Z,20.31
2023-04-07T15:15:14.373Z,20.75
2023-04-07T15:17:44.252Z,20.79
2023-04-07T15:20:12.967Z,20.11
2023-04-07T15:22:39.960Z,19.21
2023-04-07T15:25:06.836Z,19.14
2023-04-07T15:27:36.932Z,19.43
2023-04-07T15:30:04.145Z,19.71
2023-04-07T15:32:33.415Z,19.86
2023-04-07T15:34:59.912Z,19.83
2023-04-07T15:37:26.595Z,19.86
2023-04-07T15:39:53.312Z,19.58
2023-04-07T15:42:19.829Z,19.47
2023-04-07T15:44:46.354Z,19.73
2023-04-07T15:47:12.878Z,19.73
2023-04-07T15:49:39.390Z,19.54
2023-04-07T15:52:06.152Z,19.18
2023-04-07T15:54:36.146Z,19.16
2023-04-07T15:57:05.373Z,19.15
2023-04-07T15:59:36.242Z,19.50
2023-04-07T16:02:06.420Z,19.57
2023-04-07T16:04:35.983Z,19.95
2023-04-07T16:07:05.383Z,20.12
2023-04-07T16:09:33.931Z,20.12
2023-04-07T16:12:03.537Z,19.95
2023-04-07T16:14:33.302Z,19.63
2023-04-07T16:16:59.824Z,19.35
2023-04-07T16:19:26.419Z,18.99
2023-04-07T16:21:53.628Z,18.65
2023-04-07T16:24:20.752Z,18.38
2023-04-07T16:26:50.599Z,18.50
2023-04-07T16:29:19.081Z,18.24
2023-04-07T16:31:46.008Z,18.21
2023-04-07T16:34:13.362Z,17.91
2023-04-07T16:36:40.778Z,18.09
2023-04-07T16:39:07.426Z,17.94
2023-04-07T16:41:33.948Z,17.73
2023-04-07T16:44:00.630Z,17.62
2023-04-07T16:46:28.888Z,17.61
2023-04-07T16:48:55.619Z,17.55
2023-04-07T16:51:22.213Z,17.41
2023-04-07T16:53:48.908Z,17.29
2023-04-07T16:56:23.135Z,17.02
2023-04-07T16:58:51.086Z,16.59
2023-04-07T17:01:18.388Z,16.67
2023-04-07T17:03:48.392Z,16.84
2023-04-07T17:06:16.505Z,17.01
2023-04-07T17:08:43.958Z,16.97
2023-04-07T17:11:11.287Z,17.14
2023-04-07T17:13:40.013Z,17.01
2023-04-07T17:16:06.982Z,17.06
2023-04-07T17:18:37.565Z,16.98
2023-04-07T17:21:07.764Z,17.02
2023-04-07T17:23:38.391Z,16.80
2023-04-07T17:26:08.356Z,16.69
2023-04-07T17:28:37.648Z,16.77
2023-04-07T17:31:06.205Z,16.61
2023-04-07T17:33:33.433Z,16.44
2023-04-07T17:36:03.208Z,16.10
2023-04-07T17:38:30.700Z,15.91
2023-04-07T17:41:02.049Z,15.83
2023-04-07T17:43:28.846Z,15.52
2023-04-07T17:45:55.517Z,15.33
2023-04-07T17:48:41.128Z,15.04
2023-04-07T17:51:55.336Z,14.72
2023-04-07T17:54:21.979Z,14.36
2023-04-07T17:56:48.418Z,13.86
2023-04-07T17:59:15.096Z,13.98
2023-04-07T18:01:41.824Z,13.52
2023-04-07T18:04:08.774Z,13.38
2023-04-07T18:06:37.622Z,13.28
2023-04-07T18:09:04.817Z,13.26
2023-04-07T18:11:32.886Z,13.15
2023-04-07T18:14:21.136Z,12.90
2023-04-07T18:17:16.239Z,12.69
2023-04-07T18:19:43.085Z,12.60
2023-04-07T18:22:13.029Z,12.41
2023-04-07T18:25:00.222Z,12.37
2023-04-07T18:30:10.660Z,12.07
2023-04-07T18:33:19.141Z,11.81
2023-04-07T18:35:45.714Z,11.37
2023-04-07T18:38:16.369Z,11.23
2023-04-07T18:40:43.884Z,11.06
2023-04-07T18:43:10.442Z,10.84
2023-04-07T18:45:39.969Z,10.45
2023-04-07T18:48:09.442Z,10.66
2023-04-07T18:50:39.182Z,10.51
2023-04-07T18:53:11.626Z,10.46
2023-04-07T18:55:41.164Z,10.27
2023-04-07T18:58:11.127Z,10.13
2023-04-07T19:00:38.878Z,10.02
2023-04-07T19:03:05.713Z,10.19
2023-04-07T19:05:32.917Z,10.16
2023-04-07T19:07:59.690Z,10.15
2023-04-07T19:10:26.133Z,10.40
2023-04-07T19:12:52.649Z,10.28
2023-04-07T19:15:19.166Z,10.32
2023-04-07T19:17:45.720Z,10.33
2023-04-07T19:20:12.248Z,10.36
2023-04-07T19:22:38.702Z,10.08
2023-04-07T19:25:09.449Z,10.14
2023-04-07T19:27:36.253Z,10.18
2023-04-07T19:30:02.883Z,10.29
2023-04-07T19:32:29.436Z,10.24
2023-04-07T19:34:56.309Z,10.02
2023-04-07T19:37:25.218Z,10.15
2023-04-07T19:40:01.743Z,10.09
2023-04-07T19:42:29.439Z,9.81
2023-04-07T19:44:58.473Z,9.93
2023-04-07T19:47:25.167Z,9.87
2023-04-07T19:49:54.741Z,9.84
2023-04-07T19:52:21.320Z,9.69
2023-04-07T19:54:47.916Z,9.73
2023-04-07T19:57:16.360Z,9.64
2023-04-07T19:59:43.137Z,9.51
2023-04-07T20:02:09.635Z,9.36
2023-04-07T20:04:36.619Z,9.23
2023-04-07T20:07:03.097Z,9.21
2023-04-07T20:09:29.706Z,9.22
2023-04-07T20:11:57.443Z,9.18
2023-04-07T20:14:24.049Z,9.11
2023-04-07T20:16:50.551Z,8.81
2023-04-07T20:19:17.129Z,8.71
2023-04-07T20:21:43.768Z,8.66
2023-04-07T20:24:10.245Z,8.52
2023-04-07T20:26:40.699Z,8.42
2023-04-07T20:29:09.212Z,8.29
2023-04-07T20:31:35.848Z,8.14
2023-04-07T20:34:03.338Z,8.04
2023-04-07T20:36:29.821Z,8.10
2023-04-07T20:38:56.588Z,8.04
2023-04-07T20:41:23.695Z,8.03
2023-04-07T20:43:54.871Z,7.91
2023-04-07T20:46:21.678Z,7.81
2023-04-07T20:48:48.354Z,7.37
2023-04-07T20:51:14.999Z,7.31
2023-04-07T20:53:41.572Z,7.01
2023-04-07T20:56:08.694Z,6.76
2023-04-07T20:58:36.119Z,6.84
2023-04-07T21:01:02.619Z,6.82
2023-04-07T21:03:30.891Z,6.90
2023-04-07T21:05:57.662Z,7.05
2023-04-07T21:08:24.653Z,7.01
2023-04-07T21:10:52.410Z,7.09
2023-04-07T21:13:19.869Z,7.11
2023-04-07T21:15:46.483Z,6.95
2023-04-07T21:18:12.956Z,6.88
2023-04-07T21:20:46.040Z,6.85
2023-04-07T21:23:12.484Z,6.78
2023-04-07T21:25:43.465Z,6.93
2023-04-07T21:28:11.097Z,6.98
2023-04-07T21:30:44.008Z,6.71
2023-04-07T21:33:14.473Z,6.72
2023-04-07T21:35:45.404Z,6.59
2023-04-07T21:38:16.427Z,6.41
2023-04-07T21:40:43.237Z,6.33
2023-04-07T21:43:12.202Z,6.30
2023-04-07T21:45:39.465Z,6.25
2023-04-07T21:48:06.697Z,6.50
2023-04-07T21:50:33.676Z,6.54
2023-04-07T21:53:00.353Z,6.63
2023-04-07T21:55:27.286Z,6.44
2023-04-07T21:57:54.014Z,6.53
2023-04-07T22:00:20.510Z,6.38
2023-04-07T22:02:47.111Z,6.36
2023-04-07T22:05:14.942Z,6.24
2023-04-07T22:07:41.664Z,6.23
2023-04-07T22:10:08.770Z,6.24
2023-04-07T22:12:35.462Z,6.13
2023-04-07T22:15:01.923Z,6.07
2023-04-07T22:17:28.478Z,5.95
2023-04-07T22:19:54.983Z,5.83
2023-04-07T22:22:21.447Z,5.39
2023-04-07T22:24:47.941Z,5.36
2023-04-07T22:27:14.422Z,5.36
2023-04-07T22:29:41.071Z,5.28
2023-04-07T22:32:07.569Z,5.51
2023-04-07T22:34:34.080Z,5.52
2023-04-07T22:37:00.545Z,5.66
2023-04-07T22:39:27.215Z,5.83
2023-04-07T22:41:53.695Z,5.91
2023-04-07T22:44:20.312Z,5.82
2023-04-07T22:46:46.932Z,5.74
2023-04-07T22:49:15.769Z,5.50
2023-04-07T22:51:48.337Z,5.45
2023-04-07T22:54:18.437Z,5.28
2023-04-07T22:56:48.175Z,5.31
2023-04-07T22:59:14.652Z,5.32
2023-04-07T23:01:41.268Z,5.35
2023-04-07T23:04:07.791Z,5.40
2023-04-07T23:06:34.267Z,5.46
2023-04-07T23:09:01.115Z,5.38
2023-04-07T23:11:27.600Z,5.46
2023-04-07T23:13:54.021Z,5.74
2023-04-07T23:16:20.917Z,5.62
2023-04-07T23:18:50.453Z,5.57
2023-04-07T23:21:20.026Z,5.66
2023-04-07T23:23:50.031Z,5.66
2023-04-07T23:26:17.995Z,5.65
2023-04-07T23:28:44.461Z,5.64
2023-04-07T23:31:11.058Z,5.50
2023-04-07T23:33:37.729Z,5.31
2023-04-07T23:36:04.929Z,5.22
2023-04-07T23:38:31.524Z,5.27
2023-04-07T23:40:57.932Z,5.20
2023-04-07T23:43:24.524Z,5.32
2023-04-07T23:45:51.281Z,5.34
2023-04-07T23:48:21.085Z,5.68
2023-04-07T23:50:49.158Z,5.66
2023-04-07T23:53:15.564Z,5.47
2023-04-07T23:55:42.077Z,5.43
2023-04-07T23:58:08.615Z,5.41
